Terminal Aerodrome Forecast
Issued by NWS

Home | Current Version | Previous Version | Text Only | Print | Product List | Glossary On
Versions: 1 2 3 4 5 6 7 8 9 10 11 12 13 14
413
FTPA31 PHFO 110101 AAA
TAFHJH
TAF AMD
PHJH 110101Z 1101/1124 02010G15KT P6SM FEW045
     FM110400 04007KT P6SM FEW025
     FM112000 04012G18KT P6SM FEW025 SCT045
      AMD NOT SKED 1104/1118=

USA.gov is the U.S. government's official web portal to all federal, state and local government web resources and services.